createdAt,value
2022-08-04T00:00:07.619Z,22.30
2022-08-04T00:02:49.783Z,22.20
2022-08-04T00:05:30.249Z,22.20
2022-08-04T00:08:06.375Z,22.30
2022-08-04T00:10:35.843Z,22.40
2022-08-04T00:13:06.332Z,22.40
2022-08-04T00:15:35.487Z,22.30
2022-08-04T00:18:06.217Z,22.40
2022-08-04T00:20:39.311Z,22.40
2022-08-04T00:23:07.915Z,22.30
2022-08-04T00:25:39.430Z,22.30
2022-08-04T00:28:07.924Z,22.30
2022-08-04T00:30:35.865Z,22.30
2022-08-04T00:33:04.061Z,22.30
2022-08-04T00:35:33.102Z,22.20
2022-08-04T00:38:03.546Z,22.20
2022-08-04T00:40:39.733Z,22.10
2022-08-04T00:43:16.047Z,22.10
2022-08-04T00:46:16.684Z,22.10
2022-08-04T00:48:58.238Z,22.10
2022-08-04T00:51:38.496Z,22.10
2022-08-04T00:54:13.467Z,22.10
2022-08-04T00:57:34.081Z,22.20
2022-08-04T01:00:08.527Z,22.30
2022-08-04T01:02:40.613Z,22.30
2022-08-04T01:05:19.443Z,22.30
2022-08-04T01:08:21.475Z,22.30
2022-08-04T01:11:00.322Z,22.20
2022-08-04T01:13:56.558Z,22.20
2022-08-04T01:16:27.603Z,22.20
2022-08-04T01:19:01.428Z,22.10
2022-08-04T01:21:59.503Z,22.10
2022-08-04T01:24:40.064Z,22.10
2022-08-04T01:27:19.636Z,22.20
2022-08-04T01:29:55.675Z,22.20
2022-08-04T01:32:30.155Z,22.30
2022-08-04T01:35:04.144Z,22.30
2022-08-04T01:37:48.358Z,22.30
2022-08-04T01:40:17.659Z,22.40
2022-08-04T01:42:46.425Z,22.40
2022-08-04T01:45:16.588Z,22.40
2022-08-04T01:47:51.085Z,22.40
2022-08-04T01:50:19.367Z,22.50
2022-08-04T01:52:51.126Z,22.50
2022-08-04T01:55:19.883Z,22.50
2022-08-04T01:57:49.862Z,22.50
2022-08-04T02:00:21.161Z,22.50
2022-08-04T02:02:50.904Z,22.50
2022-08-04T02:05:21.167Z,22.50
2022-08-04T02:08:00.530Z,22.50
2022-08-04T02:10:30.968Z,22.60
2022-08-04T02:13:11.953Z,22.60
2022-08-04T02:15:54.478Z,22.60
2022-08-04T02:18:25.703Z,22.70
2022-08-04T02:20:59.154Z,22.60
2022-08-04T02:23:31.683Z,22.70
2022-08-04T02:26:03.223Z,22.60
2022-08-04T02:28:36.280Z,22.70
2022-08-04T02:31:17.672Z,22.70
2022-08-04T02:33:48.067Z,22.70
2022-08-04T02:36:22.504Z,22.70
2022-08-04T02:38:59.726Z,22.80
2022-08-04T02:41:30.231Z,22.80
2022-08-04T02:43:59.839Z,22.80
2022-08-04T02:46:30.474Z,22.80
2022-08-04T02:48:58.689Z,22.80
2022-08-04T02:51:29.650Z,22.80
2022-08-04T02:53:59.461Z,22.80
2022-08-04T02:56:33.919Z,22.80
2022-08-04T02:59:03.650Z,22.70
2022-08-04T03:01:33.663Z,22.70
2022-08-04T03:04:24.229Z,22.80
2022-08-04T03:07:18.487Z,22.80
2022-08-04T03:10:25.089Z,22.80
2022-08-04T03:13:25.901Z,22.80
2022-08-04T03:16:10.292Z,22.80
2022-08-04T03:19:21.188Z,22.80
2022-08-04T03:22:19.158Z,22.80
2022-08-04T03:25:10.167Z,22.80
2022-08-04T03:28:11.412Z,22.80
2022-08-04T03:30:52.707Z,22.80
2022-08-04T03:33:46.149Z,22.80
2022-08-04T03:37:04.262Z,22.80
2022-08-04T03:40:18.938Z,22.70
2022-08-04T03:43:59.261Z,22.70
2022-08-04T03:46:39.059Z,22.80
2022-08-04T03:49:42.259Z,22.70
2022-08-04T03:52:49.624Z,22.70
2022-08-04T03:55:37.692Z,22.70
2022-08-04T03:58:44.141Z,22.60
2022-08-04T04:01:30.687Z,22.60
2022-08-04T04:04:47.999Z,22.60
2022-08-04T04:07:59.773Z,22.60
2022-08-04T04:10:45.240Z,22.70
2022-08-04T04:13:35.837Z,22.60
2022-08-04T04:16:21.322Z,22.60
2022-08-04T04:19:06.754Z,22.60
2022-08-04T04:21:48.192Z,22.60
2022-08-04T04:24:41.503Z,22.60
2022-08-04T04:27:17.811Z,22.70
2022-08-04T04:30:05.993Z,22.60
2022-08-04T04:32:53.931Z,22.60
2022-08-04T04:35:42.280Z,22.70
2022-08-04T04:38:49.848Z,22.70
2022-08-04T04:41:46.712Z,22.70
2022-08-04T04:44:49.457Z,22.70
2022-08-04T04:48:07.024Z,22.70
2022-08-04T04:50:28.592Z,22.80
2022-08-04T04:53:10.651Z,22.80
2022-08-04T04:55:48.099Z,22.80
2022-08-04T04:58:21.442Z,22.90
2022-08-04T05:01:06.141Z,22.90
2022-08-04T05:03:50.041Z,22.90
2022-08-04T05:06:40.052Z,22.90
2022-08-04T05:09:31.449Z,23.00
2022-08-04T05:14:32.293Z,23.00
2022-08-04T05:15:27.902Z,23.00
2022-08-04T05:17:58.198Z,23.10
2022-08-04T05:20:30.292Z,23.20
2022-08-04T05:23:02.986Z,23.20
2022-08-04T05:25:36.584Z,23.30
2022-08-04T05:28:08.250Z,23.40
2022-08-04T05:30:48.321Z,23.50
2022-08-04T05:33:19.941Z,23.50
2022-08-04T05:36:23.433Z,23.60
2022-08-04T05:38:43.702Z,23.70
2022-08-04T05:41:12.562Z,23.70
2022-08-04T05:43:43.104Z,23.70
2022-08-04T05:46:14.358Z,23.70
2022-08-04T05:48:43.562Z,23.70
2022-08-04T05:51:12.378Z,23.60
2022-08-04T05:53:44.174Z,23.70
2022-08-04T05:56:15.162Z,23.80
2022-08-04T05:58:45.108Z,23.90
2022-08-04T06:01:15.781Z,24.00
2022-08-04T06:03:44.956Z,24.20
2022-08-04T06:06:13.934Z,24.30
2022-08-04T06:08:41.917Z,24.50
2022-08-04T06:11:12.792Z,24.50
2022-08-04T06:13:50.065Z,24.70
2022-08-04T06:16:30.126Z,24.80
2022-08-04T06:20:01.047Z,24.80
2022-08-04T06:21:53.027Z,24.90
2022-08-04T06:24:24.491Z,24.80
2022-08-04T06:26:53.579Z,24.80
2022-08-04T06:29:26.836Z,24.90
2022-08-04T06:32:30.647Z,24.90
2022-08-04T06:34:48.461Z,24.90
2022-08-04T06:37:24.172Z,25.10
2022-08-04T06:40:31.401Z,25.10
2022-08-04T06:42:57.480Z,25.30
2022-08-04T06:45:26.228Z,25.40
2022-08-04T06:47:57.095Z,25.40
2022-08-04T06:51:32.343Z,25.60
2022-08-04T06:53:14.964Z,25.60
2022-08-04T06:55:45.225Z,25.70
2022-08-04T06:58:14.174Z,25.70
2022-08-04T07:00:44.292Z,25.70
2022-08-04T07:03:15.028Z,25.80
2022-08-04T07:05:47.236Z,25.80
2022-08-04T07:08:15.377Z,25.90
2022-08-04T07:10:43.457Z,26.00
2022-08-04T07:13:12.816Z,26.00
2022-08-04T07:15:43.065Z,26.10
2022-08-04T07:18:10.911Z,26.30
2022-08-04T07:20:43.178Z,26.40
2022-08-04T07:23:13.700Z,26.40
2022-08-04T07:26:00.191Z,26.50
2022-08-04T07:30:59.892Z,26.60
2022-08-04T07:33:29.296Z,27.00
2022-08-04T07:36:09.203Z,27.20
2022-08-04T07:38:50.699Z,27.20
2022-08-04T07:41:38.713Z,27.40
2022-08-04T07:46:35.962Z,27.80
2022-08-04T07:49:04.889Z,27.90
2022-08-04T07:51:36.158Z,28.00
2022-08-04T07:54:05.366Z,28.00
2022-08-04T07:56:34.336Z,28.10
2022-08-04T07:59:02.380Z,28.20
2022-08-04T08:04:00.471Z,28.30
2022-08-04T08:06:30.878Z,28.30
2022-08-04T08:09:13.461Z,28.50
2022-08-04T08:12:37.958Z,28.80
2022-08-04T08:14:31.397Z,28.90
2022-08-04T08:17:01.534Z,29.00
2022-08-04T08:19:29.842Z,29.20
2022-08-04T08:21:59.336Z,29.30
2022-08-04T08:24:30.241Z,29.40
2022-08-04T08:26:58.605Z,29.50
2022-08-04T08:29:27.742Z,29.70
2022-08-04T08:32:00.491Z,29.80
2022-08-04T08:34:31.970Z,29.90
2022-08-04T08:37:04.969Z,29.90
2022-08-04T08:39:40.521Z,29.70
2022-08-04T08:42:52.428Z,29.70
2022-08-04T08:45:44.594Z,30.10
2022-08-04T08:48:54.856Z,30.30
2022-08-04T08:51:37.840Z,30.50
2022-08-04T08:54:37.642Z,30.70
2022-08-04T08:57:59.241Z,30.80
2022-08-04T09:00:39.344Z,31.00
2022-08-04T09:03:40.060Z,31.20
2022-08-04T09:06:43.765Z,31.30
2022-08-04T09:09:37.611Z,31.50
2022-08-04T09:12:10.667Z,31.40
2022-08-04T09:14:51.252Z,31.50
2022-08-04T09:17:24.579Z,31.50
2022-08-04T09:19:58.467Z,31.50
2022-08-04T09:22:34.783Z,31.70
2022-08-04T09:25:09.586Z,31.70
2022-08-04T09:27:47.012Z,31.50
2022-08-04T09:30:19.997Z,31.50
2022-08-04T09:32:58.533Z,31.80
2022-08-04T09:35:39.684Z,31.90
2022-08-04T09:38:20.267Z,32.20
2022-08-04T09:43:59.318Z,32.00
2022-08-04T09:46:40.184Z,32.00
2022-08-04T09:49:15.651Z,32.10
2022-08-04T09:51:57.519Z,31.90
2022-08-04T09:54:34.762Z,32.00
2022-08-04T09:57:14.310Z,32.20
2022-08-04T09:59:48.126Z,32.30
2022-08-04T10:02:20.096Z,32.20
2022-08-04T10:04:50.285Z,32.20
2022-08-04T10:07:33.241Z,32.60
2022-08-04T10:10:20.092Z,32.80
2022-08-04T10:13:06.391Z,33.00
2022-08-04T10:15:41.317Z,33.20
2022-08-04T10:18:37.692Z,33.40
2022-08-04T10:21:15.239Z,33.20
2022-08-04T10:24:01.782Z,33.00
2022-08-04T10:26:35.855Z,32.60
2022-08-04T10:29:10.663Z,32.40
2022-08-04T10:31:46.047Z,32.20
2022-08-04T10:34:20.219Z,32.10
2022-08-04T10:36:55.158Z,32.10
2022-08-04T10:39:43.110Z,32.30
2022-08-04T10:42:25.894Z,32.40
2022-08-04T10:45:06.575Z,32.80
2022-08-04T10:47:39.800Z,33.10
2022-08-04T10:50:12.825Z,33.20
2022-08-04T10:52:47.050Z,33.50
2022-08-04T10:55:19.869Z,33.30
2022-08-04T10:57:52.586Z,33.20
2022-08-04T11:00:25.462Z,33.20
2022-08-04T11:02:59.606Z,33.10
2022-08-04T11:05:44.451Z,32.90
2022-08-04T11:08:20.558Z,33.00
2022-08-04T11:10:56.784Z,33.20
2022-08-04T11:13:29.979Z,32.90
2022-08-04T11:16:03.560Z,33.00
2022-08-04T11:18:41.150Z,33.30
2022-08-04T11:21:15.792Z,33.60
2022-08-04T11:23:48.858Z,33.70
2022-08-04T11:26:20.760Z,33.50
2022-08-04T11:29:03.754Z,33.60
2022-08-04T11:31:33.748Z,33.90
2022-08-04T11:34:06.715Z,34.00
2022-08-04T11:36:42.689Z,34.20
2022-08-04T11:39:16.374Z,34.20
2022-08-04T11:41:52.388Z,34.00
2022-08-04T11:44:29.884Z,33.80
2022-08-04T11:47:01.696Z,33.60
2022-08-04T11:49:56.766Z,33.60
2022-08-04T11:52:28.594Z,33.60
2022-08-04T11:54:58.328Z,33.80
2022-08-04T11:57:36.156Z,34.00
2022-08-04T12:00:09.794Z,34.20
2022-08-04T12:03:03.020Z,34.30
2022-08-04T12:05:37.422Z,34.20
2022-08-04T12:08:24.693Z,34.20
2022-08-04T12:11:02.178Z,34.20
2022-08-04T12:13:40.777Z,34.30
2022-08-04T12:16:17.831Z,34.50
2022-08-04T12:18:52.614Z,34.70
2022-08-04T12:21:29.205Z,34.80
2022-08-04T12:24:04.643Z,34.70
2022-08-04T12:26:38.921Z,34.90
2022-08-04T12:29:10.948Z,34.90
2022-08-04T12:31:46.606Z,34.90
2022-08-04T12:34:18.513Z,34.90
2022-08-04T12:36:55.480Z,35.00
2022-08-04T12:39:27.898Z,35.00
2022-08-04T12:42:03.316Z,35.10
2022-08-04T12:44:38.155Z,35.20
2022-08-04T12:47:26.615Z,35.30
2022-08-04T12:50:01.312Z,35.30
2022-08-04T12:55:23.787Z,35.50
2022-08-04T12:57:52.797Z,35.30
2022-08-04T13:00:40.700Z,35.30
2022-08-04T13:03:13.225Z,35.20
2022-08-04T13:05:42.624Z,35.20
2022-08-04T13:08:12.624Z,35.10
2022-08-04T13:10:45.853Z,35.10
2022-08-04T13:13:18.257Z,35.00
2022-08-04T13:15:57.677Z,35.20
2022-08-04T13:18:31.919Z,35.20
2022-08-04T13:21:19.485Z,35.20
2022-08-04T13:24:09.892Z,34.90
2022-08-04T13:26:54.914Z,34.80
2022-08-04T13:29:59.305Z,34.70
2022-08-04T13:32:17.800Z,34.50
2022-08-04T13:34:49.074Z,34.40
2022-08-04T13:37:21.012Z,34.50
2022-08-04T13:39:55.202Z,34.40
2022-08-04T13:42:27.373Z,34.40
2022-08-04T13:44:58.850Z,34.20
2022-08-04T13:47:30.236Z,34.10
2022-08-04T13:50:11.837Z,33.90
2022-08-04T13:55:18.901Z,33.70
2022-08-04T13:57:52.024Z,33.50
2022-08-04T14:00:29.927Z,33.50
2022-08-04T14:03:19.045Z,33.60
2022-08-04T14:06:15.795Z,33.60
2022-08-04T14:08:49.404Z,33.30
2022-08-04T14:12:09.021Z,32.90
2022-08-04T14:14:20.348Z,32.30
2022-08-04T14:16:59.426Z,31.90
2022-08-04T14:19:35.801Z,31.20
2022-08-04T14:22:04.545Z,29.60
2022-08-04T14:24:32.373Z,27.70
2022-08-04T14:27:01.259Z,27.10
2022-08-04T14:29:39.219Z,27.10
2022-08-04T14:32:14.247Z,27.20
2022-08-04T14:34:45.796Z,27.60
2022-08-04T14:37:19.264Z,27.50
2022-08-04T14:40:18.438Z,27.80
2022-08-04T14:42:42.537Z,27.70
2022-08-04T14:45:12.365Z,28.00
2022-08-04T14:47:52.434Z,28.20
2022-08-04T14:50:33.140Z,28.10
2022-08-04T14:53:04.603Z,28.20
2022-08-04T14:55:32.652Z,28.70
2022-08-04T14:58:34.927Z,28.60
2022-08-04T15:00:50.964Z,28.70
2022-08-04T15:03:21.810Z,28.90
2022-08-04T15:06:02.198Z,29.00
2022-08-04T15:08:34.041Z,28.60
2022-08-04T15:11:03.103Z,28.20
2022-08-04T15:13:32.243Z,28.40
2022-08-04T15:16:06.953Z,28.50
2022-08-04T15:18:39.152Z,28.60
2022-08-04T15:21:08.788Z,28.50
2022-08-04T15:23:39.434Z,28.70
2022-08-04T15:26:13.723Z,28.80
2022-08-04T15:28:45.650Z,29.00
2022-08-04T15:32:03.993Z,29.00
2022-08-04T15:34:04.907Z,29.10
2022-08-04T15:36:38.910Z,29.30
2022-08-04T15:39:18.385Z,29.00
2022-08-04T15:41:57.318Z,29.30
2022-08-04T15:45:08.182Z,29.30
2022-08-04T15:47:37.412Z,29.30
2022-08-04T15:50:10.342Z,29.30
2022-08-04T15:53:10.439Z,28.90
2022-08-04T15:55:43.201Z,27.70
2022-08-04T15:58:14.080Z,26.30
2022-08-04T16:01:16.978Z,24.80
2022-08-04T16:03:58.853Z,24.00
2022-08-04T16:06:45.194Z,24.40
2022-08-04T16:09:24.030Z,24.40
2022-08-04T16:11:52.762Z,24.50
2022-08-04T16:14:33.723Z,24.70
2022-08-04T16:17:17.157Z,24.90
2022-08-04T16:20:04.069Z,25.00
2022-08-04T16:22:38.002Z,25.10
2022-08-04T16:25:08.261Z,25.10
2022-08-04T16:27:41.314Z,25.00
2022-08-04T16:30:14.514Z,25.10
2022-08-04T16:32:44.960Z,25.20
2022-08-04T16:35:24.416Z,25.20
2022-08-04T16:37:55.589Z,25.10
2022-08-04T16:40:35.343Z,25.00
2022-08-04T16:43:06.368Z,25.00
2022-08-04T16:45:45.354Z,25.20
2022-08-04T16:48:14.241Z,25.30
2022-08-04T16:50:52.601Z,25.20
2022-08-04T16:53:52.030Z,25.20
2022-08-04T16:56:11.148Z,25.20
2022-08-04T16:58:53.007Z,25.20
2022-08-04T17:01:34.243Z,25.40
2022-08-04T17:04:06.269Z,25.40
2022-08-04T17:06:38.440Z,25.40
2022-08-04T17:09:10.312Z,25.50
2022-08-04T17:11:38.183Z,25.50
2022-08-04T17:14:06.706Z,25.40
2022-08-04T17:16:36.563Z,25.40
2022-08-04T17:19:05.999Z,25.40
2022-08-04T17:21:37.550Z,25.40
2022-08-04T17:24:13.145Z,25.30
2022-08-04T17:26:53.934Z,25.30
2022-08-04T17:29:43.466Z,25.20
2022-08-04T17:32:17.372Z,25.20
2022-08-04T17:34:49.056Z,25.20
2022-08-04T17:37:39.601Z,25.10
2022-08-04T17:44:05.156Z,24.70
2022-08-04T17:46:31.094Z,24.60
2022-08-04T17:49:02.154Z,24.60
2022-08-04T17:52:02.661Z,24.60
2022-08-04T17:54:36.623Z,24.70
2022-08-04T17:57:15.562Z,24.70
2022-08-04T17:59:52.282Z,24.90
2022-08-04T18:02:31.752Z,24.90
2022-08-04T18:05:07.491Z,25.10
2022-08-04T18:08:40.814Z,25.20
2022-08-04T18:10:51.523Z,25.30
2022-08-04T18:13:28.124Z,25.40
2022-08-04T18:16:03.939Z,25.40
2022-08-04T18:18:31.909Z,25.60
2022-08-04T18:21:03.509Z,25.60
2022-08-04T18:23:33.424Z,25.60
2022-08-04T18:26:03.801Z,25.60
2022-08-04T18:28:33.248Z,25.60
2022-08-04T18:31:01.833Z,25.60
2022-08-04T18:33:40.392Z,25.50
2022-08-04T18:36:32.614Z,25.50
2022-08-04T18:38:59.068Z,25.50
2022-08-04T18:41:29.136Z,25.60
2022-08-04T18:44:16.925Z,25.60
2022-08-04T18:46:52.480Z,25.50
2022-08-04T18:51:01.835Z,25.40
2022-08-04T18:52:15.073Z,25.40
2022-08-04T18:54:43.209Z,25.30
2022-08-04T18:57:24.875Z,25.20
2022-08-04T19:00:00.408Z,25.20
2022-08-04T19:02:29.459Z,25.10
2022-08-04T19:04:57.483Z,25.00
2022-08-04T19:07:30.235Z,24.90
2022-08-04T19:09:59.757Z,24.90
2022-08-04T19:12:29.432Z,24.80
2022-08-04T19:14:59.095Z,24.70
2022-08-04T19:17:56.674Z,24.70
2022-08-04T19:20:25.448Z,24.70
2022-08-04T19:24:27.417Z,24.60
2022-08-04T19:26:01.562Z,24.60
2022-08-04T19:28:34.830Z,24.50
2022-08-04T19:31:03.968Z,24.40
2022-08-04T19:33:55.910Z,24.40
2022-08-04T19:36:20.208Z,24.30
2022-08-04T19:38:56.102Z,24.30
2022-08-04T19:41:24.329Z,24.30
2022-08-04T19:43:56.708Z,24.20
2022-08-04T19:46:25.602Z,24.10
2022-08-04T19:48:59.505Z,24.20
2022-08-04T19:51:28.967Z,24.10
2022-08-04T19:54:04.054Z,24.10
2022-08-04T19:56:40.952Z,24.10
2022-08-04T19:59:11.008Z,23.90
2022-08-04T20:01:44.631Z,23.90
2022-08-04T20:04:13.980Z,23.70
2022-08-04T20:06:44.318Z,23.60
2022-08-04T20:09:25.753Z,23.60
2022-08-04T20:11:55.848Z,23.70
2022-08-04T20:14:32.639Z,23.40
2022-08-04T20:17:02.508Z,23.40
2022-08-04T20:19:30.749Z,23.40
2022-08-04T20:22:00.100Z,23.40
2022-08-04T20:24:38.831Z,23.40
2022-08-04T20:27:21.594Z,23.30
2022-08-04T20:29:55.418Z,23.00
2022-08-04T20:32:25.261Z,23.30
2022-08-04T20:34:55.390Z,23.20
2022-08-04T20:37:25.281Z,23.00
2022-08-04T20:39:57.050Z,23.00
2022-08-04T20:42:27.323Z,22.90
2022-08-04T20:44:57.256Z,23.00
2022-08-04T20:47:26.110Z,22.90
2022-08-04T20:49:54.663Z,22.90
2022-08-04T20:52:22.584Z,22.90
2022-08-04T20:54:56.187Z,22.90
2022-08-04T20:57:48.378Z,22.80
2022-08-04T21:00:15.012Z,22.70
2022-08-04T21:05:31.382Z,22.80
2022-08-04T21:07:59.799Z,22.40
2022-08-04T21:12:56.354Z,22.50
2022-08-04T21:15:58.115Z,22.40
2022-08-04T21:18:16.990Z,22.40
2022-08-04T21:20:48.213Z,22.40
2022-08-04T21:23:16.456Z,22.40
2022-08-04T21:25:45.547Z,22.40
2022-08-04T21:28:20.081Z,22.40
2022-08-04T21:30:54.393Z,22.40
2022-08-04T21:33:49.882Z,22.40
2022-08-04T21:36:12.874Z,22.30
2022-08-04T21:38:41.783Z,22.30
2022-08-04T21:41:24.473Z,22.30
2022-08-04T21:43:53.229Z,22.30
2022-08-04T21:46:22.570Z,22.20
2022-08-04T21:48:50.485Z,22.20
2022-08-04T21:51:58.972Z,22.20
2022-08-04T21:54:15.154Z,22.10
2022-08-04T21:59:33.591Z,22.10
2022-08-04T22:02:14.784Z,22.20
2022-08-04T22:04:44.315Z,22.10
2022-08-04T22:07:12.316Z,22.10
2022-08-04T22:10:02.364Z,22.10
2022-08-04T22:12:33.646Z,22.10
2022-08-04T22:15:24.156Z,22.10
2022-08-04T22:17:52.116Z,22.10
2022-08-04T22:20:27.205Z,22.10
2022-08-04T22:23:03.440Z,22.10
2022-08-04T22:25:44.850Z,22.10
2022-08-04T22:28:21.713Z,22.00
2022-08-04T22:30:55.090Z,22.00
2022-08-04T22:33:54.448Z,22.00
2022-08-04T22:36:14.373Z,21.80
2022-08-04T22:38:48.657Z,21.80
2022-08-04T22:41:21.209Z,21.80
2022-08-04T22:43:54.829Z,21.90
2022-08-04T22:46:24.550Z,21.70
2022-08-04T22:48:54.652Z,21.60
2022-08-04T22:51:23.825Z,21.60
2022-08-04T22:53:54.854Z,21.50
2022-08-04T22:56:37.306Z,21.50
2022-08-04T22:59:06.730Z,21.50
2022-08-04T23:01:58.892Z,21.50
2022-08-04T23:04:28.302Z,21.40
2022-08-04T23:06:56.201Z,21.40
2022-08-04T23:09:49.136Z,21.40
2022-08-04T23:12:28.391Z,21.40
2022-08-04T23:14:57.403Z,21.40
2022-08-04T23:17:27.762Z,21.40
2022-08-04T23:19:59.208Z,21.30
2022-08-04T23:22:41.453Z,21.20
2022-08-04T23:25:16.231Z,21.20
2022-08-04T23:27:50.411Z,21.10
2022-08-04T23:30:21.689Z,21.10
2022-08-04T23:32:53.157Z,21.10
2022-08-04T23:35:23.031Z,21.10
2022-08-04T23:37:57.828Z,21.40
2022-08-04T23:40:33.354Z,20.90
2022-08-04T23:43:12.186Z,21.10
2022-08-04T23:46:07.402Z,21.10
2022-08-04T23:48:34.242Z,21.10
2022-08-04T23:51:14.085Z,21.20
2022-08-04T23:54:03.106Z,21.10
2022-08-04T23:56:32.678Z,21.10
2022-08-04T23:59:03.948Z,21.10
